Time;durP1;ratioP1;P1;durP2;ratioP2;P2;SDS_P1;SDS_P2;PMS_P1;PMS_P2;Temp;Humidity;BMP_temperature;BMP_pressure;BME280_temperature;BME280_humidity;BME280_pressure;Samples;Min_cycle;Max_cycle;Signal;HPM_P1;HPM_P2
2023/01/23 00:00:05;;;;;;;4.97;3.00;;;4.10;99.90;;;;;;4935828;29;20000;-73
2023/01/23 00:02:31;;;;;;;5.32;3.45;;;4.10;99.90;;;;;;4930548;29;20390;-73
2023/01/23 00:04:57;;;;;;;5.78;3.40;;;4.10;99.90;;;;;;4922650;29;20043;-73
2023/01/23 00:07:22;;;;;;;6.20;3.70;;;4.10;99.90;;;;;;4942830;29;20036;-73
2023/01/23 00:09:48;;;;;;;6.43;4.13;;;4.10;99.90;;;;;;4924975;29;20043;-73
2023/01/23 00:12:14;;;;;;;6.35;3.88;;;4.10;99.90;;;;;;4925054;29;20134;-73
2023/01/23 00:14:40;;;;;;;4.63;3.10;;;4.10;99.90;;;;;;4924722;29;20051;-73
2023/01/23 00:17:05;;;;;;;5.55;2.97;;;4.10;99.90;;;;;;4924615;29;20054;-73
2023/01/23 00:19:31;;;;;;;5.30;2.97;;;4.10;99.90;;;;;;4924957;29;20043;-73
2023/01/23 00:21:59;;;;;;;7.70;3.72;;;4.10;99.90;;;;;;4908927;29;20048;-73
2023/01/23 00:24:25;;;;;;;6.38;3.33;;;4.10;99.90;;;;;;4924413;29;20047;-73
2023/01/23 00:26:51;;;;;;;7.00;3.80;;;4.10;99.90;;;;;;4925382;29;20043;-73
2023/01/23 00:29:17;;;;;;;7.82;3.40;;;4.10;99.90;;;;;;4924915;29;20379;-73
2023/01/23 00:31:43;;;;;;;6.82;3.67;;;4.10;99.90;;;;;;4910243;29;20070;-73
2023/01/23 00:34:12;;;;;;;6.53;3.80;;;4.10;99.90;;;;;;4924557;29;20387;-73
2023/01/23 00:36:40;;;;;;;9.73;3.83;;;4.10;99.90;;;;;;4925265;28;20134;-73
2023/01/23 00:39:08;;;;;;;8.82;4.03;;;4.10;99.90;;;;;;4923645;29;20134;-73
2023/01/23 00:41:34;;;;;;;6.22;3.55;;;4.10;99.90;;;;;;4925224;29;20042;-73
2023/01/23 00:44:00;;;;;;;6.93;3.75;;;4.10;99.90;;;;;;4922299;29;20031;-73
2023/01/23 00:46:25;;;;;;;9.50;3.97;;;4.10;99.90;;;;;;4922477;29;20039;-73
2023/01/23 00:48:51;;;;;;;6.03;3.47;;;4.10;99.90;;;;;;4924341;29;20079;-73
2023/01/23 00:51:17;;;;;;;6.78;3.15;;;4.10;99.90;;;;;;4923570;29;20554;-73
2023/01/23 00:53:43;;;;;;;5.72;3.60;;;4.10;99.90;;;;;;4908812;29;20058;-73
2023/01/23 00:56:09;;;;;;;7.22;3.67;;;4.10;99.90;;;;;;4910246;29;20047;-73
2023/01/23 00:58:35;;;;;;;9.75;3.92;;;4.10;99.90;;;;;;4921784;29;20047;-73
2023/01/23 01:01:01;;;;;;;5.28;3.25;;;4.10;99.90;;;;;;4934869;29;20054;-73
2023/01/23 01:03:27;;;;;;;5.15;2.90;;;4.10;99.90;;;;;;4927641;29;20028;-73
2023/01/23 01:05:52;;;;;;;5.35;2.95;;;4.10;99.90;;;;;;4925059;29;20051;-73
2023/01/23 01:08:18;;;;;;;4.70;3.08;;;4.10;99.90;;;;;;4934023;29;20502;-73
2023/01/23 01:10:44;;;;;;;5.78;3.80;;;4.10;99.90;;;;;;4918397;29;20047;-73
2023/01/23 01:13:10;;;;;;;5.78;3.38;;;4.10;99.90;;;;;;4934094;29;20050;-73
2023/01/23 01:15:36;;;;;;;4.75;2.78;;;4.10;99.90;;;;;;4934411;29;20102;-73
2023/01/23 01:18:02;;;;;;;6.65;3.60;;;4.10;99.90;;;;;;4934891;29;20044;-73
2023/01/23 01:20:28;;;;;;;6.15;3.85;;;4.10;99.90;;;;;;4917974;29;20399;-73
2023/01/23 01:22:55;;;;;;;6.03;3.22;;;4.10;99.90;;;;;;4919603;29;20066;-73
2023/01/23 01:25:21;;;;;;;4.65;3.30;;;4.10;99.90;;;;;;4938683;29;20047;-73
2023/01/23 01:27:47;;;;;;;8.82;4.60;;;4.10;99.90;;;;;;4938572;29;20050;-73
2023/01/23 01:30:14;;;;;;;5.00;3.30;;;4.10;99.90;;;;;;4930065;29;20155;-73
2023/01/23 01:32:41;;;;;;;6.35;3.13;;;4.10;99.90;;;;;;4927434;29;20054;-73
2023/01/23 01:35:07;;;;;;;4.75;3.10;;;4.00;99.90;;;;;;4911015;29;20106;-73
2023/01/23 01:37:38;;;;;;;6.32;3.10;;;4.00;99.90;;;;;;4927135;29;20067;-73
2023/01/23 01:40:10;;;;;;;5.28;3.10;;;4.00;99.90;;;;;;4927981;29;20039;-73
2023/01/23 01:42:46;;;;;;;4.60;2.60;;;4.00;99.90;;;;;;4929235;29;20118;-73
2023/01/23 01:45:49;;;;;;;3.63;2.08;;;4.00;99.90;;;;;;4927835;29;20039;-73
2023/01/23 01:48:17;;;;;;;4.43;2.70;;;4.00;99.90;;;;;;4939178;29;20051;-73
2023/01/23 01:50:42;;;;;;;5.22;2.80;;;4.00;99.90;;;;;;4943963;29;20043;-73
2023/01/23 01:53:10;;;;;;;5.68;3.40;;;4.00;99.90;;;;;;4943392;29;20121;-73
2023/01/23 01:55:36;;;;;;;5.72;3.10;;;4.00;99.90;;;;;;4944877;28;20059;-73
2023/01/23 01:58:02;;;;;;;5.72;3.47;;;4.00;99.90;;;;;;4940386;29;20805;-73
2023/01/23 02:00:28;;;;;;;6.80;3.47;;;4.00;99.90;;;;;;4929329;29;20039;-73
2023/01/23 02:02:59;;;;;;;5.18;2.78;;;4.00;99.90;;;;;;4965159;28;20061;-73
2023/01/23 02:05:29;;;;;;;4.95;2.83;;;4.00;99.90;;;;;;4944359;29;20044;-73
2023/01/23 02:08:06;;;;;;;4.45;2.80;;;4.00;99.90;;;;;;4926363;29;20032;-73
2023/01/23 02:10:33;;;;;;;3.65;2.50;;;4.00;99.90;;;;;;4941962;29;20130;-73
2023/01/23 02:13:18;;;;;;;4.75;2.67;;;4.00;99.90;;;;;;4927694;29;20452;-73
2023/01/23 02:15:45;;;;;;;7.82;3.28;;;4.00;99.90;;;;;;4927106;29;20102;-73
2023/01/23 02:18:10;;;;;;;6.60;3.08;;;4.00;99.90;;;;;;4945444;29;20090;-73
2023/01/23 02:20:36;;;;;;;4.68;3.22;;;4.00;99.90;;;;;;4941926;29;20075;-73
2023/01/23 02:23:17;;;;;;;4.95;3.05;;;3.90;99.90;;;;;;4943555;29;20043;-73
2023/01/23 02:25:42;;;;;;;7.93;3.65;;;4.00;99.90;;;;;;4939326;29;20039;-72
2023/01/23 02:28:13;;;;;;;6.30;3.03;;;4.00;99.90;;;;;;4941355;29;20057;-72
2023/01/23 02:30:41;;;;;;;5.93;3.60;;;4.00;99.90;;;;;;4941999;29;20047;-72
2023/01/23 02:33:18;;;;;;;6.07;3.70;;;4.00;99.90;;;;;;4926180;29;20431;-72
2023/01/23 02:35:45;;;;;;;5.32;3.40;;;4.00;99.90;;;;;;4928369;29;20048;-72
2023/01/23 02:38:11;;;;;;;4.38;3.20;;;4.00;99.90;;;;;;4942868;29;20059;-72
2023/01/23 02:40:38;;;;;;;;;;;4.00;99.90;;;;;;4942753;29;20348;-72
2023/01/23 02:43:07;;;;;;;5.85;4.00;;;4.00;99.90;;;;;;4943037;29;19929;-72
2023/01/23 02:45:33;;;;;;;5.20;3.58;;;4.00;99.90;;;;;;4927901;29;20054;-72
2023/01/23 02:48:00;;;;;;;5.32;3.40;;;4.00;99.90;;;;;;4943231;29;20142;-72
2023/01/23 02:50:27;;;;;;;7.47;4.00;;;4.00;99.90;;;;;;4941748;29;20783;-72
2023/01/23 02:52:53;;;;;;;8.00;4.40;;;4.00;99.90;;;;;;4943258;29;20043;-72
2023/01/23 02:55:25;;;;;;;7.00;4.90;;;4.00;99.90;;;;;;4943801;28;20174;-72
2023/01/23 02:57:51;;;;;;;6.07;3.88;;;4.00;99.90;;;;;;4943638;29;20047;-72
2023/01/23 03:00:21;;;;;;;;;;;4.00;99.90;;;;;;4943416;29;20111;-72
2023/01/23 03:02:48;;;;;;;7.00;4.28;;;4.00;99.90;;;;;;4937172;29;19922;-72
2023/01/23 03:05:15;;;;;;;7.78;4.00;;;4.00;99.90;;;;;;4953038;29;20435;-72
2023/01/23 03:07:41;;;;;;;7.43;4.57;;;4.00;99.90;;;;;;4953166;29;20051;-72
2023/01/23 03:10:08;;;;;;;7.20;4.72;;;4.00;99.90;;;;;;4941155;29;20056;-72
2023/01/23 03:12:34;;;;;;;5.15;3.65;;;4.10;99.90;;;;;;4936780;29;20539;-72
2023/01/23 03:15:01;;;;;;;5.72;3.20;;;4.10;99.90;;;;;;4944751;29;20503;-72
2023/01/23 03:17:27;;;;;;;;;;;4.00;99.90;;;;;;4953124;29;20058;-72
2023/01/23 03:19:54;;;;;;;4.18;2.63;;;4.00;99.90;;;;;;4952717;29;19923;-72
2023/01/23 03:22:20;;;;;;;6.00;3.00;;;4.00;99.90;;;;;;4936119;29;20361;-72
2023/01/23 03:24:46;;;;;;;5.72;3.83;;;4.00;99.90;;;;;;4952692;29;20047;-73
2023/01/23 03:27:12;;;;;;;5.70;3.17;;;4.00;99.90;;;;;;4935585;29;20483;-73
2023/01/23 03:32:21;;;;;;;3.67;2.67;;;4.00;99.90;;;;;;4945723;29;20043;-73
2023/01/23 03:34:47;;;;;;;3.83;2.65;;;4.10;99.90;;;;;;4940065;29;20395;-73
2023/01/23 03:37:14;;;;;;;7.33;3.77;;;4.00;99.90;;;;;;4940791;29;20472;-73
2023/01/23 03:42:24;;;;;;;4.50;3.08;;;4.00;99.90;;;;;;4942544;29;20039;-73
2023/01/23 03:44:51;;;;;;;5.18;3.30;;;4.10;99.90;;;;;;4926209;29;20035;-73
2023/01/23 03:47:17;;;;;;;3.25;2.33;;;4.10;99.90;;;;;;4942631;28;20083;-73
2023/01/23 03:49:43;;;;;;;6.38;3.92;;;4.10;99.90;;;;;;4925428;29;20126;-73
2023/01/23 03:52:08;;;;;;;6.53;3.90;;;4.10;99.90;;;;;;4922256;29;21428;-73
2023/01/23 03:54:34;;;;;;;8.07;4.75;;;4.10;99.90;;;;;;4943394;28;20078;-73
2023/01/23 03:57:00;;;;;;;6.65;3.83;;;4.10;99.90;;;;;;4908515;29;20043;-73
2023/01/23 03:59:25;;;;;;;5.35;3.55;;;4.10;99.90;;;;;;4940520;29;20054;-72
2023/01/23 04:01:51;;;;;;;5.57;3.45;;;4.10;99.90;;;;;;4924101;29;20124;-73
2023/01/23 04:04:17;;;;;;;6.53;4.45;;;4.10;99.90;;;;;;4926801;29;20043;-73
2023/01/23 04:06:43;;;;;;;8.00;4.78;;;4.10;99.90;;;;;;4925331;29;20050;-73
2023/01/23 04:09:08;;;;;;;4.97;3.63;;;4.10;99.90;;;;;;4910052;29;20043;-73
2023/01/23 04:11:34;;;;;;;5.60;3.50;;;4.10;99.90;;;;;;4925622;29;20537;-73
2023/01/23 04:14:00;;;;;;;6.78;3.85;;;4.10;99.90;;;;;;4925162;29;20047;-72
2023/01/23 04:16:27;;;;;;;4.55;3.20;;;4.10;99.90;;;;;;4924633;29;20035;-72
2023/01/23 04:18:53;;;;;;;3.90;2.80;;;4.10;99.90;;;;;;4909083;29;20065;-72
2023/01/23 04:21:19;;;;;;;4.15;2.65;;;4.00;99.90;;;;;;4925322;29;20463;-72
2023/01/23 04:23:45;;;;;;;4.10;2.15;;;4.00;99.90;;;;;;4925673;29;20294;-72
2023/01/23 04:26:11;;;;;;;5.35;2.65;;;4.00;99.90;;;;;;4925147;28;20436;-72
2023/01/23 04:28:36;;;;;;;3.00;2.50;;;4.00;99.90;;;;;;4923662;29;20066;-72
2023/01/23 04:31:02;;;;;;;5.70;3.38;;;4.10;99.90;;;;;;4912155;29;20487;-72
2023/01/23 04:33:28;;;;;;;4.38;2.95;;;4.10;99.90;;;;;;4920567;29;20137;-72
2023/01/23 04:35:59;;;;;;;3.92;2.72;;;4.10;99.90;;;;;;4923841;29;20058;-73
2023/01/23 04:38:27;;;;;;;3.58;2.80;;;4.10;99.90;;;;;;4924813;29;20043;-73
2023/01/23 04:40:53;;;;;;;6.80;3.10;;;4.10;99.90;;;;;;4922781;29;20044;-73
2023/01/23 04:43:19;;;;;;;2.75;2.20;;;4.00;99.90;;;;;;4929742;29;20582;-73
2023/01/23 04:45:45;;;;;;;5.30;3.00;;;4.10;99.90;;;;;;4925324;29;20118;-73
2023/01/23 04:48:12;;;;;;;4.90;3.13;;;4.00;99.90;;;;;;4919642;29;20056;-73
2023/01/23 04:50:38;;;;;;;4.82;2.95;;;4.00;99.90;;;;;;4938176;29;20047;-73
2023/01/23 04:53:04;;;;;;;4.70;3.10;;;4.00;99.90;;;;;;4923983;29;20052;-73
2023/01/23 04:55:30;;;;;;;3.90;2.53;;;4.00;99.90;;;;;;4924908;29;20044;-73
2023/01/23 04:57:56;;;;;;;4.35;2.80;;;4.00;99.90;;;;;;4941294;29;20050;-73
2023/01/23 05:00:22;;;;;;;4.00;2.75;;;4.00;99.90;;;;;;4946686;29;20039;-73
2023/01/23 05:02:48;;;;;;;3.10;2.13;;;4.10;99.90;;;;;;4947013;29;20106;-73
2023/01/23 05:05:16;;;;;;;6.22;3.78;;;4.00;99.90;;;;;;4931410;29;20043;-73
2023/01/23 05:07:43;;;;;;;4.45;2.90;;;4.00;99.90;;;;;;4931353;29;20055;-73
2023/01/23 05:10:09;;;;;;;6.35;3.63;;;4.00;99.90;;;;;;4949119;29;20047;-73
2023/01/23 05:12:35;;;;;;;5.72;3.42;;;4.10;99.90;;;;;;4949513;29;20051;-73
2023/01/23 05:15:01;;;;;;;5.60;3.55;;;4.00;99.90;;;;;;4931259;29;20051;-73
2023/01/23 05:17:26;;;;;;;5.20;3.25;;;4.00;99.90;;;;;;4932337;29;20047;-73
2023/01/23 05:19:52;;;;;;;6.40;3.30;;;4.10;99.90;;;;;;4948297;29;20066;-73
2023/01/23 05:22:18;;;;;;;7.97;4.20;;;4.10;99.90;;;;;;4949095;29;20122;-72
2023/01/23 05:24:44;;;;;;;4.50;3.35;;;4.10;99.90;;;;;;4949806;29;20154;-72
2023/01/23 05:27:11;;;;;;;6.03;3.75;;;4.10;99.90;;;;;;4930045;29;20062;-73
2023/01/23 05:29:36;;;;;;;6.03;4.60;;;4.00;99.90;;;;;;4922576;29;20043;-73
2023/01/23 05:32:02;;;;;;;5.90;3.60;;;4.10;99.90;;;;;;4942562;29;20065;-73
2023/01/23 05:34:28;;;;;;;4.85;3.78;;;4.10;99.90;;;;;;4938666;29;20302;-73
2023/01/23 05:36:54;;;;;;;5.37;3.50;;;4.00;99.90;;;;;;4939359;29;20496;-72
2023/01/23 05:39:19;;;;;;;8.10;4.37;;;4.00;99.90;;;;;;4940649;29;20709;-72
2023/01/23 05:41:45;;;;;;;7.28;4.72;;;4.00;99.90;;;;;;4941680;28;20675;-72
2023/01/23 05:44:11;;;;;;;5.07;3.78;;;4.00;99.90;;;;;;4923715;29;20040;-72
2023/01/23 05:46:36;;;;;;;6.97;4.47;;;4.00;99.90;;;;;;4939510;29;20053;-72
2023/01/23 05:49:02;;;;;;;7.80;5.07;;;4.00;99.90;;;;;;4907235;29;20062;-72
2023/01/23 05:51:31;;;;;;;6.53;4.40;;;4.10;99.90;;;;;;4924023;29;20169;-72
2023/01/23 05:54:01;;;;;;;7.30;4.20;;;4.00;99.90;;;;;;4921868;29;20054;-72
2023/01/23 05:56:27;;;;;;;5.28;4.03;;;4.00;99.90;;;;;;4926342;29;20047;-72
2023/01/23 05:58:52;;;;;;;10.52;4.65;;;4.00;99.90;;;;;;4942492;29;20047;-72
2023/01/23 06:01:19;;;;;;;5.22;3.90;;;4.00;99.90;;;;;;4922209;29;20047;-72
2023/01/23 06:03:45;;;;;;;6.03;4.47;;;4.00;99.90;;;;;;4922281;29;20043;-72
2023/01/23 06:06:10;;;;;;;7.03;4.05;;;4.00;99.90;;;;;;4927499;29;20043;-72
2023/01/23 06:08:36;;;;;;;6.80;4.53;;;4.00;99.90;;;;;;4911090;29;20051;-72
2023/01/23 06:11:02;;;;;;;6.55;4.30;;;4.00;99.90;;;;;;4944607;28;20136;-72
2023/01/23 06:13:28;;;;;;;5.65;4.00;;;4.00;99.90;;;;;;4926607;29;20047;-73
2023/01/23 06:15:54;;;;;;;4.32;3.40;;;4.00;99.90;;;;;;4926959;29;20044;-72
2023/01/23 06:18:21;;;;;;;6.68;3.85;;;4.00;99.90;;;;;;4910296;29;20047;-72
2023/01/23 06:20:46;;;;;;;4.72;3.58;;;4.00;99.90;;;;;;4925826;29;20027;-72
2023/01/23 06:23:12;;;;;;;5.15;4.13;;;4.00;99.90;;;;;;4912832;29;20052;-72
2023/01/23 06:25:38;;;;;;;6.95;4.35;;;4.00;99.90;;;;;;4927326;29;20061;-72
2023/01/23 06:28:04;;;;;;;5.90;4.00;;;4.00;99.90;;;;;;4910827;29;20817;-72
2023/01/23 06:30:30;;;;;;;5.22;4.00;;;4.00;99.90;;;;;;4921371;29;20052;-72
2023/01/23 06:32:56;;;;;;;4.47;3.10;;;4.00;99.90;;;;;;4924135;29;20111;-72
2023/01/23 06:35:21;;;;;;;4.30;3.30;;;4.00;99.90;;;;;;4926876;29;20051;-72
2023/01/23 06:37:47;;;;;;;4.00;3.22;;;4.00;99.90;;;;;;4911338;29;20525;-73
2023/01/23 06:40:13;;;;;;;5.63;3.42;;;3.90;99.90;;;;;;4926246;29;20071;-73
2023/01/23 06:42:40;;;;;;;4.50;2.97;;;4.00;99.90;;;;;;4926496;29;20423;-74
2023/01/23 06:45:08;;;;;;;4.78;2.90;;;3.90;99.90;;;;;;4910053;29;20047;-74
2023/01/23 06:47:34;;;;;;;5.10;2.75;;;3.90;99.90;;;;;;4933404;29;20090;-74
2023/01/23 06:50:01;;;;;;;4.40;2.90;;;3.90;99.90;;;;;;4940350;29;20518;-74
2023/01/23 06:52:27;;;;;;;;;;;3.90;99.90;;;;;;4923150;29;20054;-74
2023/01/23 06:54:52;;;;;;;5.18;3.63;;;3.90;99.90;;;;;;4925365;29;20013;-74
2023/01/23 06:57:18;;;;;;;7.18;4.65;;;3.90;99.90;;;;;;4939977;29;20071;-74
2023/01/23 06:59:44;;;;;;;5.95;4.00;;;4.00;99.90;;;;;;4944333;29;20039;-74
2023/01/23 07:02:10;;;;;;;7.65;4.82;;;4.00;99.90;;;;;;4942818;29;20035;-74
2023/01/23 07:04:36;;;;;;;;;;;4.00;99.90;;;;;;4942155;29;20039;-74
2023/01/23 07:07:01;;;;;;;5.57;3.20;;;4.00;99.90;;;;;;4940803;29;19929;-74
2023/01/23 07:09:27;;;;;;;6.80;4.32;;;3.90;99.90;;;;;;4943182;29;20047;-74
2023/01/23 07:11:53;;;;;;;7.55;4.57;;;3.90;99.90;;;;;;4925905;29;20043;-74
2023/01/23 07:14:19;;;;;;;7.30;4.40;;;4.00;99.90;;;;;;4943716;28;20438;-74
2023/01/23 07:16:45;;;;;;;7.35;5.05;;;4.00;99.90;;;;;;4924843;29;20581;-74
2023/01/23 07:19:10;;;;;;;5.80;4.47;;;3.90;99.90;;;;;;4934264;29;20054;-74
2023/01/23 07:21:36;;;;;;;6.63;4.40;;;4.00;99.90;;;;;;4932834;29;20103;-74
2023/01/23 07:24:02;;;;;;;5.03;3.80;;;4.00;99.90;;;;;;4933191;29;20134;-74
2023/01/23 07:26:27;;;;;;;6.50;4.55;;;4.00;99.90;;;;;;4933026;29;20374;-74
2023/01/23 07:28:54;;;;;;;7.30;4.93;;;4.00;99.90;;;;;;4931907;29;20411;-74
2023/01/23 07:31:19;;;;;;;8.05;5.50;;;4.00;99.90;;;;;;4932844;29;20050;-74
2023/01/23 07:33:46;;;;;;;10.13;5.72;;;4.00;99.90;;;;;;4932776;29;20059;-74
2023/01/23 07:36:13;;;;;;;5.82;4.57;;;4.00;99.90;;;;;;4933027;29;20054;-74
2023/01/23 07:38:40;;;;;;;6.07;4.50;;;4.00;99.90;;;;;;4916774;29;20463;-73
2023/01/23 07:41:05;;;;;;;;;;;4.00;99.90;;;;;;4933139;29;20044;-74
2023/01/23 07:43:31;;;;;;;6.53;4.72;;;4.10;99.90;;;;;;4932985;29;19925;-74
2023/01/23 07:46:00;;;;;;;6.97;4.88;;;4.00;99.90;;;;;;4917044;29;20036;-74
2023/01/23 07:48:26;;;;;;;7.93;5.20;;;4.00;99.90;;;;;;4933898;29;20067;-74
2023/01/23 07:50:52;;;;;;;4.95;4.00;;;4.00;99.90;;;;;;4917094;29;20082;-74
2023/01/23 07:53:18;;;;;;;6.27;4.00;;;4.00;99.90;;;;;;4916923;29;20574;-74
2023/01/23 07:55:44;;;;;;;5.22;4.10;;;4.00;99.90;;;;;;4913072;29;20290;-74
2023/01/23 07:58:09;;;;;;;8.95;4.38;;;4.00;99.90;;;;;;4935735;29;20051;-74
2023/01/23 08:00:35;;;;;;;5.60;4.00;;;3.90;99.90;;;;;;4935623;29;20069;-74
2023/01/23 08:03:01;;;;;;;5.85;4.18;;;4.00;99.90;;;;;;4935450;29;20094;-74
2023/01/23 08:05:27;;;;;;;7.80;5.50;;;3.90;99.90;;;;;;4919972;29;20050;-74
2023/01/23 08:07:53;;;;;;;6.30;4.60;;;3.90;99.90;;;;;;4935544;29;20479;-74
2023/01/23 08:10:19;;;;;;;6.45;4.43;;;3.90;99.90;;;;;;4919580;29;20043;-74
2023/01/23 08:12:44;;;;;;;5.35;4.10;;;4.00;99.90;;;;;;4952762;29;20094;-74
2023/01/23 08:15:10;;;;;;;6.00;4.35;;;4.00;99.90;;;;;;4935457;29;20039;-74
2023/01/23 08:17:36;;;;;;;4.22;3.55;;;4.00;99.90;;;;;;4904044;29;20047;-74
2023/01/23 08:20:03;;;;;;;5.88;4.10;;;4.00;99.90;;;;;;4935401;29;20561;-74
2023/01/23 08:22:28;;;;;;;4.97;3.63;;;4.00;99.90;;;;;;4919587;29;20075;-74
2023/01/23 08:24:54;;;;;;;6.32;4.40;;;4.00;99.90;;;;;;4935004;28;20078;-74
2023/01/23 08:27:20;;;;;;;6.78;4.20;;;4.00;99.90;;;;;;4934870;29;20059;-74
2023/01/23 08:29:45;;;;;;;7.18;4.85;;;4.00;99.90;;;;;;4919531;29;20043;-74
2023/01/23 08:32:11;;;;;;;6.00;4.93;;;4.00;99.90;;;;;;4919256;29;20550;-74
2023/01/23 08:34:37;;;;;;;6.93;4.72;;;4.00;99.90;;;;;;4935360;29;20043;-74
2023/01/23 08:37:02;;;;;;;6.03;4.75;;;4.00;99.90;;;;;;4935271;29;20487;-74
2023/01/23 08:39:28;;;;;;;4.60;3.70;;;3.90;99.90;;;;;;4935499;29;20491;-74
2023/01/23 08:41:54;;;;;;;4.63;3.80;;;4.00;99.90;;;;;;4919224;29;20402;-74
2023/01/23 08:44:20;;;;;;;4.85;3.58;;;4.00;99.90;;;;;;4935139;29;20078;-74
2023/01/23 08:46:45;;;;;;;5.55;3.88;;;4.00;99.90;;;;;;4935128;29;20103;-74
2023/01/23 08:49:11;;;;;;;5.13;3.80;;;3.90;99.90;;;;;;4950977;29;20058;-74
2023/01/23 08:51:37;;;;;;;3.80;3.40;;;3.90;99.90;;;;;;4950860;29;20043;-74
2023/01/23 08:54:03;;;;;;;5.88;4.35;;;3.90;99.90;;;;;;4934722;29;20096;-74
2023/01/23 08:56:29;;;;;;;5.53;3.33;;;4.00;99.90;;;;;;4951887;28;20051;-74
2023/01/23 08:58:56;;;;;;;3.47;3.00;;;4.00;99.90;;;;;;4950830;29;20257;-74
2023/01/23 09:01:24;;;;;;;4.18;3.00;;;3.90;99.90;;;;;;4950832;29;20070;-74
2023/01/23 09:03:50;;;;;;;3.30;2.80;;;4.00;99.90;;;;;;4950887;29;20047;-74
2023/01/23 09:06:18;;;;;;;3.45;2.80;;;3.90;99.90;;;;;;4934835;29;20047;-74
2023/01/23 09:08:44;;;;;;;4.00;3.30;;;4.00;99.90;;;;;;4934969;29;20137;-74
2023/01/23 09:11:10;;;;;;;4.20;3.20;;;3.90;99.90;;;;;;4950528;29;20047;-74
2023/01/23 09:13:37;;;;;;;4.95;3.70;;;4.00;99.90;;;;;;4950908;29;20404;-74
2023/01/23 09:16:04;;;;;;;6.88;4.40;;;4.00;99.90;;;;;;4950887;29;20054;-75
2023/01/23 09:18:30;;;;;;;4.78;3.83;;;4.00;99.90;;;;;;4950589;29;20054;-74
2023/01/23 09:20:56;;;;;;;5.13;3.40;;;4.00;99.90;;;;;;4950557;29;20047;-74
2023/01/23 09:23:22;;;;;;;3.25;2.70;;;4.00;99.90;;;;;;4950627;29;20061;-74
2023/01/23 09:25:48;;;;;;;3.45;2.67;;;4.00;99.90;;;;;;4950832;29;20395;-74
2023/01/23 09:28:14;;;;;;;3.20;2.50;;;4.00;99.90;;;;;;4950737;29;20130;-74
2023/01/23 09:30:40;;;;;;;3.95;2.30;;;4.00;99.90;;;;;;4950509;29;20130;-75
2023/01/23 09:33:06;;;;;;;;;;;4.00;99.90;;;;;;4951131;29;20126;-74
2023/01/23 09:35:32;;;;;;;3.42;2.83;;;4.00;99.90;;;;;;4948607;29;19954;-75
2023/01/23 09:37:58;;;;;;;4.20;2.72;;;4.00;99.90;;;;;;4952923;28;20557;-74
2023/01/23 09:40:44;;;;;;;3.10;2.35;;;4.00;99.90;;;;;;4954393;29;20047;-74
2023/01/23 09:43:20;;;;;;;3.85;2.60;;;4.00;99.90;;;;;;4954296;29;20364;-74
2023/01/23 09:45:56;;;;;;;2.30;2.00;;;4.00;99.90;;;;;;4937832;29;20110;-74
2023/01/23 09:48:29;;;;;;;3.05;1.90;;;4.00;99.90;;;;;;4953828;29;20069;-74
2023/01/23 09:51:01;;;;;;;2.50;2.00;;;4.00;99.90;;;;;;4953817;29;20134;-74
2023/01/23 09:53:35;;;;;;;2.58;2.05;;;4.10;99.90;;;;;;4937903;29;20054;-74
2023/01/23 09:56:23;;;;;;;3.92;2.75;;;4.00;99.90;;;;;;4953988;28;20047;-74
2023/01/23 09:59:26;;;;;;;3.13;2.78;;;4.10;99.90;;;;;;4953749;29;20047;-74
2023/01/23 10:01:52;;;;;;;3.67;2.38;;;4.10;99.90;;;;;;4937676;29;20126;-74
2023/01/23 10:04:19;;;;;;;3.10;2.17;;;4.10;99.90;;;;;;4937981;29;20150;-74
2023/01/23 10:07:10;;;;;;;2.38;2.03;;;4.20;99.90;;;;;;4953835;29;20473;-74
2023/01/23 10:09:35;;;;;;;4.07;2.70;;;4.20;99.90;;;;;;4937656;29;20089;-74
2023/01/23 10:12:23;;;;;;;3.50;2.30;;;4.20;99.90;;;;;;4953557;29;20051;-74
2023/01/23 10:15:18;;;;;;;3.42;2.53;;;4.20;99.90;;;;;;4953573;29;20051;-74
2023/01/23 10:18:09;;;;;;;4.20;3.53;;;4.20;99.90;;;;;;4953636;29;20043;-74
2023/01/23 10:20:48;;;;;;;3.45;3.10;;;4.20;99.90;;;;;;4953618;29;20070;-74
2023/01/23 10:23:34;;;;;;;3.60;3.10;;;4.20;99.90;;;;;;4953734;29;20518;-74
2023/01/23 10:26:03;;;;;;;3.60;3.10;;;4.20;99.90;;;;;;4937385;29;20043;-74
2023/01/23 10:28:37;;;;;;;5.03;3.78;;;4.20;99.90;;;;;;4953410;29;20055;-74
2023/01/23 10:31:09;;;;;;;5.47;4.45;;;4.20;99.90;;;;;;4953235;29;20039;-74
2023/01/23 10:33:56;;;;;;;6.68;4.55;;;4.10;99.90;;;;;;4953201;29;20051;-74
2023/01/23 10:36:42;;;;;;;5.35;4.13;;;4.10;99.90;;;;;;4953267;29;20055;-74
2023/01/23 10:39:16;;;;;;;5.28;3.80;;;4.10;99.90;;;;;;4952505;29;20459;-74
2023/01/23 10:41:42;;;;;;;6.38;4.32;;;4.20;99.90;;;;;;4937424;29;20058;-75
2023/01/23 10:44:17;;;;;;;5.28;3.70;;;4.20;99.90;;;;;;4937281;29;20502;-74
2023/01/23 10:46:55;;;;;;;5.57;4.00;;;4.20;99.90;;;;;;4952928;29;20062;-74
2023/01/23 10:49:28;;;;;;;5.57;3.88;;;4.20;99.90;;;;;;4920593;29;20039;-74
2023/01/23 10:51:53;;;;;;;5.28;4.20;;;4.20;99.90;;;;;;4920994;29;20129;-74
2023/01/23 10:54:25;;;;;;;4.73;3.23;;;4.30;99.90;;;;;;4921185;28;20130;-74
2023/01/23 10:57:01;;;;;;;5.05;4.15;;;4.20;99.90;;;;;;4937019;29;20382;-74
2023/01/23 10:59:57;;;;;;;7.35;5.45;;;4.30;99.90;;;;;;4921100;29;20110;-74
2023/01/23 11:02:29;;;;;;;7.22;4.93;;;4.30;99.90;;;;;;4937106;29;20085;-74
2023/01/23 11:04:55;;;;;;;6.75;4.50;;;4.30;99.90;;;;;;4936604;29;20039;-74
2023/01/23 11:07:35;;;;;;;5.93;4.80;;;4.30;99.90;;;;;;4936934;29;20043;-74
2023/01/23 11:10:17;;;;;;;5.47;4.40;;;4.30;99.90;;;;;;4936830;29;20210;-74
2023/01/23 11:12:48;;;;;;;7.10;5.18;;;4.30;99.90;;;;;;4936865;29;20394;-74
2023/01/23 11:15:24;;;;;;;6.55;5.28;;;4.40;99.90;;;;;;4920512;29;20047;-74
2023/01/23 11:17:53;;;;;;;5.68;4.97;;;4.40;99.90;;;;;;4920695;29;20087;-74
2023/01/23 11:20:30;;;;;;;9.95;6.10;;;4.40;99.90;;;;;;4936567;29;20070;-74
2023/01/23 11:23:00;;;;;;;7.97;6.32;;;4.50;99.90;;;;;;4953796;29;20102;-74
2023/01/23 11:25:32;;;;;;;6.55;5.47;;;4.40;99.90;;;;;;4936579;29;20047;-74
2023/01/23 11:28:16;;;;;;;6.07;5.28;;;4.40;99.90;;;;;;4936563;29;20047;-74
2023/01/23 11:31:05;;;;;;;7.28;4.82;;;4.40;99.90;;;;;;4936150;29;20051;-74
2023/01/23 11:33:50;;;;;;;7.50;5.63;;;4.50;99.90;;;;;;4936094;29;20086;-74
2023/01/23 11:36:16;;;;;;;7.63;6.10;;;4.50;99.90;;;;;;4936038;29;20074;-74
2023/01/23 11:39:04;;;;;;;8.40;5.70;;;4.60;99.90;;;;;;4920158;29;20093;-74
2023/01/23 11:41:33;;;;;;;8.57;5.78;;;4.60;99.90;;;;;;4936025;29;20074;-74
2023/01/23 11:44:03;;;;;;;6.72;5.45;;;4.60;99.90;;;;;;4935956;29;20153;-74
2023/01/23 11:46:35;;;;;;;6.95;5.93;;;4.70;99.90;;;;;;4935993;29;20372;-74
2023/01/23 11:49:22;;;;;;;7.65;5.97;;;4.70;99.90;;;;;;4935739;29;20550;-74
2023/01/23 11:51:48;;;;;;;6.22;5.30;;;4.70;99.90;;;;;;4935894;29;20673;-74
2023/01/23 11:54:41;;;;;;;6.37;5.10;;;4.70;99.90;;;;;;4935664;28;20055;-74
2023/01/23 11:57:18;;;;;;;5.18;4.10;;;4.80;99.90;;;;;;4936009;29;20576;-74
2023/01/23 12:00:22;;;;;;;6.13;4.35;;;4.90;99.90;;;;;;4935329;29;20047;-74
2023/01/23 12:03:11;;;;;;;5.95;4.80;;;4.90;99.90;;;;;;4935217;29;20047;-74
2023/01/23 12:05:39;;;;;;;6.63;4.70;;;4.90;99.90;;;;;;4933801;29;20039;-74
2023/01/23 12:08:23;;;;;;;4.57;3.90;;;4.90;99.90;;;;;;4918542;29;20161;-74
2023/01/23 12:10:49;;;;;;;6.28;5.28;;;5.00;99.90;;;;;;4935217;29;20093;-74
2023/01/23 12:13:44;;;;;;;6.25;4.18;;;5.10;99.90;;;;;;4919691;29;20050;-74
2023/01/23 12:16:27;;;;;;;5.20;4.05;;;5.10;99.90;;;;;;4935991;29;20455;-74
2023/01/23 12:18:56;;;;;;;4.53;4.03;;;5.00;99.90;;;;;;4935382;29;20043;-74
2023/01/23 12:21:27;;;;;;;4.15;3.65;;;5.00;99.90;;;;;;4935654;29;20039;-74
2023/01/23 12:24:24;;;;;;;5.00;4.03;;;5.00;99.90;;;;;;4935659;29;20134;-74
2023/01/23 12:27:14;;;;;;;4.03;3.40;;;4.90;99.90;;;;;;4935569;29;20138;-74
2023/01/23 12:30:01;;;;;;;5.05;4.00;;;4.90;99.90;;;;;;4935155;29;20043;-74
2023/01/23 12:32:39;;;;;;;5.65;4.18;;;4.80;99.90;;;;;;4935488;29;20093;-74
2023/01/23 12:35:15;;;;;;;6.15;4.03;;;4.70;99.50;;;;;;4935083;29;20074;-74
2023/01/23 12:38:02;;;;;;;6.43;5.20;;;4.70;99.90;;;;;;4935405;29;20487;-74
2023/01/23 12:40:30;;;;;;;6.90;5.22;;;4.70;99.90;;;;;;4934977;29;20471;-74
2023/01/23 12:43:16;;;;;;;6.20;4.78;;;4.60;99.90;;;;;;4935603;29;20412;-74
2023/01/23 12:46:07;;;;;;;5.93;5.25;;;4.60;99.90;;;;;;4935083;29;20074;-74
2023/01/23 12:48:48;;;;;;;7.70;4.78;;;4.60;99.90;;;;;;4931778;29;20095;-74
2023/01/23 12:51:21;;;;;;;5.63;4.93;;;4.60;99.90;;;;;;4932227;29;20384;-74
2023/01/23 12:53:52;;;;;;;5.53;4.85;;;4.60;99.90;;;;;;4916141;29;20044;-74
2023/01/23 12:56:29;;;;;;;5.38;4.60;;;4.50;99.90;;;;;;4931844;29;20127;-74
2023/01/23 12:59:06;;;;;;;4.78;4.25;;;4.50;99.90;;;;;;4932190;29;20043;-74
2023/01/23 13:01:49;;;;;;;5.72;4.40;;;4.50;99.90;;;;;;4932101;29;20054;-74
2023/01/23 13:04:26;;;;;;;5.80;4.05;;;4.50;99.90;;;;;;4932149;29;20048;-74
2023/01/23 13:07:06;;;;;;;5.13;4.15;;;4.50;99.90;;;;;;4931778;29;20056;-74
2023/01/23 13:09:42;;;;;;;4.43;3.90;;;4.50;99.90;;;;;;4932083;29;20395;-74
2023/01/23 13:12:20;;;;;;;5.20;4.18;;;4.50;99.90;;;;;;4917334;29;20048;-74
2023/01/23 13:15:07;;;;;;;5.85;3.95;;;4.60;99.90;;;;;;4919999;29;20403;-74